sensor_id;sensor_type;location;lat;lon;timestamp;temperature;humidity
2056;DHT22;1033;52.560;13.374;2022-07-23T00:01:32;17.90;99.90
2056;DHT22;1033;52.560;13.374;2022-07-23T00:04:03;17.80;99.90
2056;DHT22;1033;52.560;13.374;2022-07-23T00:06:32;17.80;99.90
2056;DHT22;1033;52.560;13.374;2022-07-23T00:09:01;17.80;99.90
2056;DHT22;1033;52.560;13.374;2022-07-23T00:11:30;17.70;99.90
2056;DHT22;1033;52.560;13.374;2022-07-23T00:13:59;17.80;99.90
2056;DHT22;1033;52.560;13.374;2022-07-23T00:16:28;17.70;99.90
2056;DHT22;1033;52.560;13.374;2022-07-23T00:18:57;17.70;99.90
2056;DHT22;1033;52.560;13.374;2022-07-23T00:21:30;17.70;99.90
2056;DHT22;1033;52.560;13.374;2022-07-23T00:23:59;17.80;99.90
2056;DHT22;1033;52.560;13.374;2022-07-23T00:26:28;17.80;99.90
2056;DHT22;1033;52.560;13.374;2022-07-23T00:28:57;17.80;99.90
2056;DHT22;1033;52.560;13.374;2022-07-23T00:31:27;17.90;99.90
2056;DHT22;1033;52.560;13.374;2022-07-23T00:33:56;17.90;99.90
2056;DHT22;1033;52.560;13.374;2022-07-23T00:36:30;17.90;99.90
2056;DHT22;1033;52.560;13.374;2022-07-23T00:38:59;17.80;99.90
2056;DHT22;1033;52.560;13.374;2022-07-23T00:41:29;17.70;99.90
2056;DHT22;1033;52.560;13.374;2022-07-23T00:44:16;17.70;99.90
2056;DHT22;1033;52.560;13.374;2022-07-23T00:46:48;17.70;99.90
2056;DHT22;1033;52.560;13.374;2022-07-23T00:49:20;17.80;99.90
2056;DHT22;1033;52.560;13.374;2022-07-23T00:51:51;17.80;99.90
2056;DHT22;1033;52.560;13.374;2022-07-23T00:54:22;17.70;99.90
2056;DHT22;1033;52.560;13.374;2022-07-23T00:56:54;17.70;99.90
2056;DHT22;1033;52.560;13.374;2022-07-23T00:59:23;17.70;99.90
2056;DHT22;1033;52.560;13.374;2022-07-23T01:01:52;17.70;99.90
2056;DHT22;1033;52.560;13.374;2022-07-23T01:04:21;17.70;99.90
2056;DHT22;1033;52.560;13.374;2022-07-23T01:06:51;17.70;99.90
2056;DHT22;1033;52.560;13.374;2022-07-23T01:09:20;17.60;99.90
2056;DHT22;1033;52.560;13.374;2022-07-23T01:11:51;17.50;99.90
2056;DHT22;1033;52.560;13.374;2022-07-23T01:14:22;17.40;99.90
2056;DHT22;1033;52.560;13.374;2022-07-23T01:16:51;17.30;99.90
2056;DHT22;1033;52.560;13.374;2022-07-23T01:19:20;17.30;99.90
2056;DHT22;1033;52.560;13.374;2022-07-23T01:21:53;17.20;99.90
2056;DHT22;1033;52.560;13.374;2022-07-23T01:24:26;17.20;99.90
2056;DHT22;1033;52.560;13.374;2022-07-23T01:27:02;17.20;99.90
2056;DHT22;1033;52.560;13.374;2022-07-23T01:29:35;17.10;99.90
2056;DHT22;1033;52.560;13.374;2022-07-23T01:32:10;17.10;99.90
2056;DHT22;1033;52.560;13.374;2022-07-23T01:34:39;17.10;99.90
2056;DHT22;1033;52.560;13.374;2022-07-23T01:37:08;17.10;99.90
2056;DHT22;1033;52.560;13.374;2022-07-23T01:39:38;17.00;99.90
2056;DHT22;1033;52.560;13.374;2022-07-23T01:42:07;17.00;99.90
2056;DHT22;1033;52.560;13.374;2022-07-23T01:44:37;16.90;99.90
2056;DHT22;1033;52.560;13.374;2022-07-23T01:47:08;16.90;99.90
2056;DHT22;1033;52.560;13.374;2022-07-23T01:49:37;16.90;99.90
2056;DHT22;1033;52.560;13.374;2022-07-23T01:52:27;16.80;99.90
2056;DHT22;1033;52.560;13.374;2022-07-23T01:54:57;16.70;99.90
2056;DHT22;1033;52.560;13.374;2022-07-23T01:57:26;16.80;99.90
2056;DHT22;1033;52.560;13.374;2022-07-23T01:59:55;16.80;99.90
2056;DHT22;1033;52.560;13.374;2022-07-23T02:02:24;16.70;99.90
2056;DHT22;1033;52.560;13.374;2022-07-23T02:04:53;16.70;99.90
2056;DHT22;1033;52.560;13.374;2022-07-23T02:07:25;16.80;99.90
2056;DHT22;1033;52.560;13.374;2022-07-23T02:10:01;16.80;99.90
2056;DHT22;1033;52.560;13.374;2022-07-23T02:12:29;16.70;99.90
2056;DHT22;1033;52.560;13.374;2022-07-23T02:14:58;16.80;99.90
2056;DHT22;1033;52.560;13.374;2022-07-23T02:17:28;16.80;99.90
2056;DHT22;1033;52.560;13.374;2022-07-23T02:19:56;16.90;99.90
2056;DHT22;1033;52.560;13.374;2022-07-23T02:22:25;16.80;99.90
2056;DHT22;1033;52.560;13.374;2022-07-23T02:24:54;16.80;99.90
2056;DHT22;1033;52.560;13.374;2022-07-23T02:27:25;16.80;99.90
2056;DHT22;1033;52.560;13.374;2022-07-23T02:29:55;16.80;99.90
2056;DHT22;1033;52.560;13.374;2022-07-23T02:32:24;16.70;99.90
2056;DHT22;1033;52.560;13.374;2022-07-23T02:34:53;16.70;99.90
2056;DHT22;1033;52.560;13.374;2022-07-23T02:37:22;16.70;99.90
2056;DHT22;1033;52.560;13.374;2022-07-23T02:39:51;16.70;99.90
2056;DHT22;1033;52.560;13.374;2022-07-23T02:42:20;16.70;99.90
2056;DHT22;1033;52.560;13.374;2022-07-23T02:44:52;16.70;99.90
2056;DHT22;1033;52.560;13.374;2022-07-23T02:47:20;16.70;99.90
2056;DHT22;1033;52.560;13.374;2022-07-23T02:49:49;16.70;99.90
2056;DHT22;1033;52.560;13.374;2022-07-23T02:52:18;16.60;99.90
2056;DHT22;1033;52.560;13.374;2022-07-23T02:54:48;16.50;99.90
2056;DHT22;1033;52.560;13.374;2022-07-23T02:57:17;16.50;99.90
2056;DHT22;1033;52.560;13.374;2022-07-23T02:59:45;16.40;99.90
2056;DHT22;1033;52.560;13.374;2022-07-23T03:02:16;16.40;99.90
2056;DHT22;1033;52.560;13.374;2022-07-23T03:04:44;16.40;99.90
2056;DHT22;1033;52.560;13.374;2022-07-23T03:07:13;16.30;99.90
2056;DHT22;1033;52.560;13.374;2022-07-23T03:09:42;16.30;99.90
2056;DHT22;1033;52.560;13.374;2022-07-23T03:12:11;16.30;99.90
2056;DHT22;1033;52.560;13.374;2022-07-23T03:14:41;16.20;99.90
2056;DHT22;1033;52.560;13.374;2022-07-23T03:17:10;16.10;99.90
2056;DHT22;1033;52.560;13.374;2022-07-23T03:19:40;16.10;99.90
2056;DHT22;1033;52.560;13.374;2022-07-23T03:22:09;16.10;99.90
2056;DHT22;1033;52.560;13.374;2022-07-23T03:24:38;16.10;99.90
2056;DHT22;1033;52.560;13.374;2022-07-23T03:27:32;16.10;99.90
2056;DHT22;1033;52.560;13.374;2022-07-23T03:30:01;16.10;99.90
2056;DHT22;1033;52.560;13.374;2022-07-23T03:32:30;16.10;99.90
2056;DHT22;1033;52.560;13.374;2022-07-23T03:35:00;16.00;99.90
2056;DHT22;1033;52.560;13.374;2022-07-23T03:37:29;16.00;99.90
2056;DHT22;1033;52.560;13.374;2022-07-23T03:39:59;16.00;99.90
2056;DHT22;1033;52.560;13.374;2022-07-23T03:42:29;16.10;99.90
2056;DHT22;1033;52.560;13.374;2022-07-23T03:44:58;16.10;99.90
2056;DHT22;1033;52.560;13.374;2022-07-23T03:47:26;16.10;99.90
2056;DHT22;1033;52.560;13.374;2022-07-23T03:49:55;16.10;99.90
2056;DHT22;1033;52.560;13.374;2022-07-23T03:52:25;16.10;99.90
2056;DHT22;1033;52.560;13.374;2022-07-23T03:54:54;16.20;99.90
2056;DHT22;1033;52.560;13.374;2022-07-23T03:57:24;16.20;99.90
2056;DHT22;1033;52.560;13.374;2022-07-23T03:59:53;16.20;99.90
2056;DHT22;1033;52.560;13.374;2022-07-23T04:02:21;16.40;99.90
2056;DHT22;1033;52.560;13.374;2022-07-23T04:04:50;16.40;99.90
2056;DHT22;1033;52.560;13.374;2022-07-23T04:07:19;16.50;99.90
2056;DHT22;1033;52.560;13.374;2022-07-23T04:09:50;16.50;99.40
2056;DHT22;1033;52.560;13.374;2022-07-23T04:12:18;16.50;99.50
2056;DHT22;1033;52.560;13.374;2022-07-23T04:14:47;16.40;98.80
2056;DHT22;1033;52.560;13.374;2022-07-23T04:17:16;16.50;98.50
2056;DHT22;1033;52.560;13.374;2022-07-23T04:19:45;16.40;98.40
2056;DHT22;1033;52.560;13.374;2022-07-23T04:22:17;16.40;99.00
2056;DHT22;1033;52.560;13.374;2022-07-23T04:24:46;16.40;99.00
2056;DHT22;1033;52.560;13.374;2022-07-23T04:27:17;16.40;99.80
2056;DHT22;1033;52.560;13.374;2022-07-23T04:29:47;16.40;99.90
2056;DHT22;1033;52.560;13.374;2022-07-23T04:32:16;16.30;99.90
2056;DHT22;1033;52.560;13.374;2022-07-23T04:34:46;16.30;99.90
2056;DHT22;1033;52.560;13.374;2022-07-23T04:37:15;16.30;99.90
2056;DHT22;1033;52.560;13.374;2022-07-23T04:39:43;16.20;99.90
2056;DHT22;1033;52.560;13.374;2022-07-23T04:42:12;16.20;99.90
2056;DHT22;1033;52.560;13.374;2022-07-23T04:44:42;16.10;99.90
2056;DHT22;1033;52.560;13.374;2022-07-23T04:47:12;15.90;99.90
2056;DHT22;1033;52.560;13.374;2022-07-23T04:49:43;15.70;99.90
2056;DHT22;1033;52.560;13.374;2022-07-23T04:52:12;15.60;99.90
2056;DHT22;1033;52.560;13.374;2022-07-23T04:54:42;15.40;99.90
2056;DHT22;1033;52.560;13.374;2022-07-23T04:57:12;15.30;99.90
2056;DHT22;1033;52.560;13.374;2022-07-23T04:59:42;15.20;99.90
2056;DHT22;1033;52.560;13.374;2022-07-23T05:02:12;15.30;99.90
2056;DHT22;1033;52.560;13.374;2022-07-23T05:04:41;15.20;99.90
2056;DHT22;1033;52.560;13.374;2022-07-23T05:07:11;15.20;99.90
2056;DHT22;1033;52.560;13.374;2022-07-23T05:09:40;15.20;99.90
2056;DHT22;1033;52.560;13.374;2022-07-23T05:12:09;15.20;99.90
2056;DHT22;1033;52.560;13.374;2022-07-23T05:14:42;15.10;99.90
2056;DHT22;1033;52.560;13.374;2022-07-23T05:17:11;15.10;99.90
2056;DHT22;1033;52.560;13.374;2022-07-23T05:19:40;15.10;99.90
2056;DHT22;1033;52.560;13.374;2022-07-23T05:22:09;15.10;99.90
2056;DHT22;1033;52.560;13.374;2022-07-23T05:24:38;15.10;99.90
2056;DHT22;1033;52.560;13.374;2022-07-23T05:27:08;15.10;99.90
2056;DHT22;1033;52.560;13.374;2022-07-23T05:29:45;15.20;99.90
2056;DHT22;1033;52.560;13.374;2022-07-23T05:32:14;15.30;99.90
2056;DHT22;1033;52.560;13.374;2022-07-23T05:34:50;15.30;99.90
2056;DHT22;1033;52.560;13.374;2022-07-23T05:37:19;15.30;99.90
2056;DHT22;1033;52.560;13.374;2022-07-23T05:39:48;15.30;99.90
2056;DHT22;1033;52.560;13.374;2022-07-23T05:42:17;15.40;99.90
2056;DHT22;1033;52.560;13.374;2022-07-23T05:44:48;15.40;99.90
2056;DHT22;1033;52.560;13.374;2022-07-23T05:47:17;15.40;99.90
2056;DHT22;1033;52.560;13.374;2022-07-23T05:49:46;15.40;99.90
2056;DHT22;1033;52.560;13.374;2022-07-23T05:52:38;15.40;99.90
2056;DHT22;1033;52.560;13.374;2022-07-23T05:55:27;15.40;99.90
2056;DHT22;1033;52.560;13.374;2022-07-23T05:57:59;15.50;99.90
2056;DHT22;1033;52.560;13.374;2022-07-23T06:00:29;15.60;99.90
2056;DHT22;1033;52.560;13.374;2022-07-23T06:02:58;15.70;99.90
2056;DHT22;1033;52.560;13.374;2022-07-23T06:05:29;15.60;99.90
2056;DHT22;1033;52.560;13.374;2022-07-23T06:07:58;15.60;99.90
2056;DHT22;1033;52.560;13.374;2022-07-23T06:10:27;15.80;99.90
2056;DHT22;1033;52.560;13.374;2022-07-23T06:12:56;15.60;99.90
2056;DHT22;1033;52.560;13.374;2022-07-23T06:15:30;15.60;99.90
2056;DHT22;1033;52.560;13.374;2022-07-23T06:17:59;15.60;99.90
2056;DHT22;1033;52.560;13.374;2022-07-23T06:20:28;15.60;99.90
2056;DHT22;1033;52.560;13.374;2022-07-23T06:22:58;15.70;99.90
2056;DHT22;1033;52.560;13.374;2022-07-23T06:25:28;15.60;99.90
2056;DHT22;1033;52.560;13.374;2022-07-23T06:27:57;15.60;99.90
2056;DHT22;1033;52.560;13.374;2022-07-23T06:30:26;15.50;99.90
2056;DHT22;1033;52.560;13.374;2022-07-23T06:32:56;15.50;99.90
2056;DHT22;1033;52.560;13.374;2022-07-23T06:35:25;15.50;99.90
2056;DHT22;1033;52.560;13.374;2022-07-23T06:37:54;15.50;99.90
2056;DHT22;1033;52.560;13.374;2022-07-23T06:40:23;15.60;99.90
2056;DHT22;1033;52.560;13.374;2022-07-23T06:42:52;15.60;99.90
2056;DHT22;1033;52.560;13.374;2022-07-23T06:45:22;15.70;99.90
2056;DHT22;1033;52.560;13.374;2022-07-23T06:47:52;15.90;99.90
2056;DHT22;1033;52.560;13.374;2022-07-23T06:50:22;15.80;99.90
2056;DHT22;1033;52.560;13.374;2022-07-23T06:52:51;15.80;99.90
2056;DHT22;1033;52.560;13.374;2022-07-23T06:55:20;15.90;99.90
2056;DHT22;1033;52.560;13.374;2022-07-23T06:57:49;15.90;99.90
2056;DHT22;1033;52.560;13.374;2022-07-23T07:00:17;15.90;99.90
2056;DHT22;1033;52.560;13.374;2022-07-23T07:02:47;15.90;99.90
2056;DHT22;1033;52.560;13.374;2022-07-23T07:05:16;16.00;99.90
2056;DHT22;1033;52.560;13.374;2022-07-23T07:07:46;16.00;99.90
2056;DHT22;1033;52.560;13.374;2022-07-23T07:10:14;16.10;99.90
2056;DHT22;1033;52.560;13.374;2022-07-23T07:12:44;16.10;99.90
2056;DHT22;1033;52.560;13.374;2022-07-23T07:15:13;16.10;99.90
2056;DHT22;1033;52.560;13.374;2022-07-23T07:17:42;16.20;99.90
2056;DHT22;1033;52.560;13.374;2022-07-23T07:20:11;16.50;99.90
2056;DHT22;1033;52.560;13.374;2022-07-23T07:22:40;16.50;99.90
2056;DHT22;1033;52.560;13.374;2022-07-23T07:25:10;16.60;99.90
2056;DHT22;1033;52.560;13.374;2022-07-23T07:27:39;16.80;99.90
2056;DHT22;1033;52.560;13.374;2022-07-23T07:30:09;16.90;99.90
2056;DHT22;1033;52.560;13.374;2022-07-23T07:32:39;16.90;99.90
2056;DHT22;1033;52.560;13.374;2022-07-23T07:35:25;16.80;99.90
2056;DHT22;1033;52.560;13.374;2022-07-23T07:37:54;17.00;99.90
2056;DHT22;1033;52.560;13.374;2022-07-23T07:40:24;17.20;99.90
2056;DHT22;1033;52.560;13.374;2022-07-23T07:43:00;17.20;99.90
2056;DHT22;1033;52.560;13.374;2022-07-23T07:45:30;17.40;99.90
2056;DHT22;1033;52.560;13.374;2022-07-23T07:47:59;17.30;99.90
2056;DHT22;1033;52.560;13.374;2022-07-23T07:50:28;17.50;99.90
2056;DHT22;1033;52.560;13.374;2022-07-23T07:52:57;17.50;99.90
2056;DHT22;1033;52.560;13.374;2022-07-23T07:55:27;17.50;99.90
2056;DHT22;1033;52.560;13.374;2022-07-23T07:57:56;17.70;99.90
2056;DHT22;1033;52.560;13.374;2022-07-23T08:00:28;17.60;99.90
2056;DHT22;1033;52.560;13.374;2022-07-23T08:02:59;17.60;99.90
2056;DHT22;1033;52.560;13.374;2022-07-23T08:05:30;17.70;99.90
2056;DHT22;1033;52.560;13.374;2022-07-23T08:07:59;17.70;99.90
2056;DHT22;1033;52.560;13.374;2022-07-23T08:10:30;18.00;99.90
2056;DHT22;1033;52.560;13.374;2022-07-23T08:12:59;18.30;99.90
2056;DHT22;1033;52.560;13.374;2022-07-23T08:15:29;18.30;99.90
2056;DHT22;1033;52.560;13.374;2022-07-23T08:17:59;18.50;99.90
2056;DHT22;1033;52.560;13.374;2022-07-23T08:20:28;18.60;99.90
2056;DHT22;1033;52.560;13.374;2022-07-23T08:22:58;18.50;99.90
2056;DHT22;1033;52.560;13.374;2022-07-23T08:25:31;18.50;99.90
2056;DHT22;1033;52.560;13.374;2022-07-23T08:28:03;18.60;99.90
2056;DHT22;1033;52.560;13.374;2022-07-23T08:30:35;18.70;99.90
2056;DHT22;1033;52.560;13.374;2022-07-23T08:33:08;18.70;98.10
2056;DHT22;1033;52.560;13.374;2022-07-23T08:36:00;18.70;99.90
2056;DHT22;1033;52.560;13.374;2022-07-23T08:38:32;18.90;99.30
2056;DHT22;1033;52.560;13.374;2022-07-23T08:41:04;19.10;96.50
2056;DHT22;1033;52.560;13.374;2022-07-23T08:43:36;19.20;93.80
2056;DHT22;1033;52.560;13.374;2022-07-23T08:46:05;19.20;95.20
2056;DHT22;1033;52.560;13.374;2022-07-23T08:48:35;19.00;95.70
2056;DHT22;1033;52.560;13.374;2022-07-23T08:51:06;19.10;97.20
2056;DHT22;1033;52.560;13.374;2022-07-23T08:53:37;19.30;93.60
2056;DHT22;1033;52.560;13.374;2022-07-23T08:56:09;19.50;94.10
2056;DHT22;1033;52.560;13.374;2022-07-23T08:58:38;19.90;90.60
2056;DHT22;1033;52.560;13.374;2022-07-23T09:01:07;20.00;75.80
2056;DHT22;1033;52.560;13.374;2022-07-23T09:03:36;20.10;77.40
2056;DHT22;1033;52.560;13.374;2022-07-23T09:06:06;20.00;67.70
2056;DHT22;1033;52.560;13.374;2022-07-23T09:08:37;20.10;72.20
2056;DHT22;1033;52.560;13.374;2022-07-23T09:11:09;20.00;80.20
2056;DHT22;1033;52.560;13.374;2022-07-23T09:13:39;20.10;80.60
2056;DHT22;1033;52.560;13.374;2022-07-23T09:16:12;20.20;82.70
2056;DHT22;1033;52.560;13.374;2022-07-23T09:18:45;20.40;69.10
2056;DHT22;1033;52.560;13.374;2022-07-23T09:21:19;20.50;58.70
2056;DHT22;1033;52.560;13.374;2022-07-23T09:23:57;20.40;59.30
2056;DHT22;1033;52.560;13.374;2022-07-23T09:26:32;20.60;64.50
2056;DHT22;1033;52.560;13.374;2022-07-23T09:29:08;20.90;62.00
2056;DHT22;1033;52.560;13.374;2022-07-23T09:31:48;21.20;57.50
2056;DHT22;1033;52.560;13.374;2022-07-23T09:34:20;21.60;51.10
2056;DHT22;1033;52.560;13.374;2022-07-23T09:36:51;21.70;44.50
2056;DHT22;1033;52.560;13.374;2022-07-23T09:39:27;21.90;37.60
2056;DHT22;1033;52.560;13.374;2022-07-23T09:41:58;21.60;38.30
2056;DHT22;1033;52.560;13.374;2022-07-23T09:44:42;21.50;39.30
2056;DHT22;1033;52.560;13.374;2022-07-23T09:47:11;21.50;41.80
2056;DHT22;1033;52.560;13.374;2022-07-23T09:49:40;21.80;40.20
2056;DHT22;1033;52.560;13.374;2022-07-23T09:52:26;21.90;35.80
2056;DHT22;1033;52.560;13.374;2022-07-23T09:55:03;21.70;36.10
2056;DHT22;1033;52.560;13.374;2022-07-23T09:57:35;21.60;36.20
2056;DHT22;1033;52.560;13.374;2022-07-23T10:00:07;21.60;34.60
2056;DHT22;1033;52.560;13.374;2022-07-23T10:02:38;21.40;34.00
2056;DHT22;1033;52.560;13.374;2022-07-23T10:05:27;21.70;36.50
2056;DHT22;1033;52.560;13.374;2022-07-23T10:08:18;21.70;32.70
2056;DHT22;1033;52.560;13.374;2022-07-23T10:11:07;22.20;31.80
2056;DHT22;1033;52.560;13.374;2022-07-23T10:14:05;21.90;32.10
2056;DHT22;1033;52.560;13.374;2022-07-23T10:16:50;22.20;31.80
2056;DHT22;1033;52.560;13.374;2022-07-23T10:19:20;22.00;30.00
2056;DHT22;1033;52.560;13.374;2022-07-23T10:21:53;21.80;30.30
2056;DHT22;1033;52.560;13.374;2022-07-23T10:24:47;21.70;30.00
2056;DHT22;1033;52.560;13.374;2022-07-23T10:27:46;21.60;30.20
2056;DHT22;1033;52.560;13.374;2022-07-23T10:30:28;21.60;28.70
2056;DHT22;1033;52.560;13.374;2022-07-23T10:33:17;21.90;30.40
2056;DHT22;1033;52.560;13.374;2022-07-23T10:36:03;21.90;28.50
2056;DHT22;1033;52.560;13.374;2022-07-23T10:38:42;22.10;30.00
2056;DHT22;1033;52.560;13.374;2022-07-23T10:41:31;22.20;29.20
2056;DHT22;1033;52.560;13.374;2022-07-23T10:44:09;22.30;27.00
2056;DHT22;1033;52.560;13.374;2022-07-23T10:46:56;22.20;25.00
2056;DHT22;1033;52.560;13.374;2022-07-23T10:49:33;22.40;27.40
2056;DHT22;1033;52.560;13.374;2022-07-23T10:52:22;22.60;26.40
2056;DHT22;1033;52.560;13.374;2022-07-23T10:54:55;22.70;24.00
2056;DHT22;1033;52.560;13.374;2022-07-23T10:57:26;22.40;24.20
2056;DHT22;1033;52.560;13.374;2022-07-23T11:00:16;22.20;23.60
2056;DHT22;1033;52.560;13.374;2022-07-23T11:02:52;22.30;25.50
2056;DHT22;1033;52.560;13.374;2022-07-23T11:05:23;22.70;23.20
2056;DHT22;1033;52.560;13.374;2022-07-23T11:08:14;22.70;22.70
2056;DHT22;1033;52.560;13.374;2022-07-23T11:10:47;22.60;22.20
2056;DHT22;1033;52.560;13.374;2022-07-23T11:13:33;22.70;21.50
2056;DHT22;1033;52.560;13.374;2022-07-23T11:16:22;22.50;22.80
2056;DHT22;1033;52.560;13.374;2022-07-23T11:19:14;22.00;22.50
2056;DHT22;1033;52.560;13.374;2022-07-23T11:21:50;21.80;24.40
2056;DHT22;1033;52.560;13.374;2022-07-23T11:24:24;22.10;24.60
2056;DHT22;1033;52.560;13.374;2022-07-23T11:26:55;22.10;24.30
2056;DHT22;1033;52.560;13.374;2022-07-23T11:29:41;22.30;23.50
2056;DHT22;1033;52.560;13.374;2022-07-23T11:32:36;22.60;22.40
2056;DHT22;1033;52.560;13.374;2022-07-23T11:35:21;22.70;23.20
2056;DHT22;1033;52.560;13.374;2022-07-23T11:37:53;23.00;23.50
2056;DHT22;1033;52.560;13.374;2022-07-23T11:40:25;23.30;21.20
2056;DHT22;1033;52.560;13.374;2022-07-23T11:42:57;23.30;19.50
2056;DHT22;1033;52.560;13.374;2022-07-23T11:45:32;23.50;17.90
2056;DHT22;1033;52.560;13.374;2022-07-23T11:48:03;23.70;18.00
2056;DHT22;1033;52.560;13.374;2022-07-23T11:50:36;23.70;16.80
2056;DHT22;1033;52.560;13.374;2022-07-23T11:53:05;23.60;16.50
2056;DHT22;1033;52.560;13.374;2022-07-23T11:55:34;23.70;16.60
2056;DHT22;1033;52.560;13.374;2022-07-23T11:58:03;23.30;15.40
2056;DHT22;1033;52.560;13.374;2022-07-23T12:00:32;23.20;15.70
2056;DHT22;1033;52.560;13.374;2022-07-23T12:03:07;23.30;16.60
2056;DHT22;1033;52.560;13.374;2022-07-23T12:05:38;23.40;14.70
2056;DHT22;1033;52.560;13.374;2022-07-23T12:08:08;24.10;15.00
2056;DHT22;1033;52.560;13.374;2022-07-23T12:10:39;24.80;11.20
2056;DHT22;1033;52.560;13.374;2022-07-23T12:13:11;24.30;10.20
2056;DHT22;1033;52.560;13.374;2022-07-23T12:15:43;24.10;10.80
2056;DHT22;1033;52.560;13.374;2022-07-23T12:18:16;23.90;11.40
2056;DHT22;1033;52.560;13.374;2022-07-23T12:20:50;23.70;11.90
2056;DHT22;1033;52.560;13.374;2022-07-23T12:23:21;23.40;12.10
2056;DHT22;1033;52.560;13.374;2022-07-23T12:25:53;23.40;12.10
2056;DHT22;1033;52.560;13.374;2022-07-23T12:28:28;23.40;13.00
2056;DHT22;1033;52.560;13.374;2022-07-23T12:30:59;23.40;13.50
2056;DHT22;1033;52.560;13.374;2022-07-23T12:33:30;23.70;12.50
2056;DHT22;1033;52.560;13.374;2022-07-23T12:36:04;23.80;12.90
2056;DHT22;1033;52.560;13.374;2022-07-23T12:38:38;23.90;12.60
2056;DHT22;1033;52.560;13.374;2022-07-23T12:41:08;23.90;11.60
2056;DHT22;1033;52.560;13.374;2022-07-23T12:43:38;24.00;10.10
2056;DHT22;1033;52.560;13.374;2022-07-23T12:46:11;23.90;8.10
2056;DHT22;1033;52.560;13.374;2022-07-23T12:48:51;23.60;1.00
2056;DHT22;1033;52.560;13.374;2022-07-23T12:51:24;23.50;1.00
2056;DHT22;1033;52.560;13.374;2022-07-23T12:53:58;23.50;1.00
2056;DHT22;1033;52.560;13.374;2022-07-23T12:56:34;23.70;1.00
2056;DHT22;1033;52.560;13.374;2022-07-23T12:59:07;23.80;1.00
2056;DHT22;1033;52.560;13.374;2022-07-23T13:01:38;23.80;1.00
2056;DHT22;1033;52.560;13.374;2022-07-23T13:04:11;23.50;1.00
2056;DHT22;1033;52.560;13.374;2022-07-23T13:06:44;23.40;1.00
2056;DHT22;1033;52.560;13.374;2022-07-23T13:09:17;23.30;1.00
2056;DHT22;1033;52.560;13.374;2022-07-23T13:11:48;23.40;1.00
2056;DHT22;1033;52.560;13.374;2022-07-23T13:14:19;23.40;1.00
2056;DHT22;1033;52.560;13.374;2022-07-23T13:16:50;23.50;1.00
2056;DHT22;1033;52.560;13.374;2022-07-23T13:19:20;23.40;1.00
2056;DHT22;1033;52.560;13.374;2022-07-23T13:21:53;23.30;1.00
2056;DHT22;1033;52.560;13.374;2022-07-23T13:24:22;23.40;1.00
2056;DHT22;1033;52.560;13.374;2022-07-23T13:26:50;23.70;1.00
2056;DHT22;1033;52.560;13.374;2022-07-23T13:29:19;23.80;1.00
2056;DHT22;1033;52.560;13.374;2022-07-23T13:31:48;23.70;1.00
2056;DHT22;1033;52.560;13.374;2022-07-23T13:34:17;23.50;1.00
2056;DHT22;1033;52.560;13.374;2022-07-23T13:36:46;23.50;1.00
2056;DHT22;1033;52.560;13.374;2022-07-23T13:39:16;23.90;1.00
2056;DHT22;1033;52.560;13.374;2022-07-23T13:41:45;24.10;1.00
2056;DHT22;1033;52.560;13.374;2022-07-23T13:44:17;23.90;1.00
2056;DHT22;1033;52.560;13.374;2022-07-23T13:46:49;23.70;1.00
2056;DHT22;1033;52.560;13.374;2022-07-23T13:49:18;23.50;1.00
2056;DHT22;1033;52.560;13.374;2022-07-23T13:51:48;23.60;1.00
2056;DHT22;1033;52.560;13.374;2022-07-23T13:54:18;23.30;1.00
2056;DHT22;1033;52.560;13.374;2022-07-23T13:56:48;23.40;1.00
2056;DHT22;1033;52.560;13.374;2022-07-23T13:59:17;24.00;1.00
2056;DHT22;1033;52.560;13.374;2022-07-23T14:01:46;24.50;1.00
2056;DHT22;1033;52.560;13.374;2022-07-23T14:04:35;25.10;1.00
2056;DHT22;1033;52.560;13.374;2022-07-23T14:07:04;25.50;1.00
2056;DHT22;1033;52.560;13.374;2022-07-23T14:09:34;25.20;1.00
2056;DHT22;1033;52.560;13.374;2022-07-23T14:12:04;24.80;1.00
2056;DHT22;1033;52.560;13.374;2022-07-23T14:14:33;24.50;1.00
2056;DHT22;1033;52.560;13.374;2022-07-23T14:17:03;24.30;1.00
2056;DHT22;1033;52.560;13.374;2022-07-23T14:19:38;24.10;1.00
2056;DHT22;1033;52.560;13.374;2022-07-23T14:22:07;24.10;1.00
2056;DHT22;1033;52.560;13.374;2022-07-23T14:24:37;24.20;1.00
2056;DHT22;1033;52.560;13.374;2022-07-23T14:27:06;24.50;1.00
2056;DHT22;1033;52.560;13.374;2022-07-23T14:29:35;24.70;1.00
2056;DHT22;1033;52.560;13.374;2022-07-23T14:32:05;24.70;1.00
2056;DHT22;1033;52.560;13.374;2022-07-23T14:34:34;24.60;1.00
2056;DHT22;1033;52.560;13.374;2022-07-23T14:37:04;24.70;1.00
2056;DHT22;1033;52.560;13.374;2022-07-23T14:39:33;24.70;1.00
2056;DHT22;1033;52.560;13.374;2022-07-23T14:42:04;25.10;1.00
2056;DHT22;1033;52.560;13.374;2022-07-23T14:44:34;25.50;1.00
2056;DHT22;1033;52.560;13.374;2022-07-23T14:47:04;26.00;1.00
2056;DHT22;1033;52.560;13.374;2022-07-23T14:49:35;26.10;1.00
2056;DHT22;1033;52.560;13.374;2022-07-23T14:52:05;25.70;1.00
2056;DHT22;1033;52.560;13.374;2022-07-23T14:54:34;25.30;1.00
2056;DHT22;1033;52.560;13.374;2022-07-23T14:57:05;24.80;1.00
2056;DHT22;1033;52.560;13.374;2022-07-23T14:59:37;24.50;1.00
2056;DHT22;1033;52.560;13.374;2022-07-23T15:02:07;24.30;1.00
2056;DHT22;1033;52.560;13.374;2022-07-23T15:04:35;24.00;1.00
2056;DHT22;1033;52.560;13.374;2022-07-23T15:07:05;24.10;1.00
2056;DHT22;1033;52.560;13.374;2022-07-23T15:09:36;24.40;1.00
2056;DHT22;1033;52.560;13.374;2022-07-23T15:12:06;24.60;1.00
2056;DHT22;1033;52.560;13.374;2022-07-23T15:14:39;24.50;1.00
2056;DHT22;1033;52.560;13.374;2022-07-23T15:17:08;24.70;1.00
2056;DHT22;1033;52.560;13.374;2022-07-23T15:19:40;24.80;1.00
2056;DHT22;1033;52.560;13.374;2022-07-23T15:22:10;24.50;1.00
2056;DHT22;1033;52.560;13.374;2022-07-23T15:24:38;24.70;1.00
2056;DHT22;1033;52.560;13.374;2022-07-23T15:27:09;25.00;1.00
2056;DHT22;1033;52.560;13.374;2022-07-23T15:29:38;24.90;1.00
2056;DHT22;1033;52.560;13.374;2022-07-23T15:32:07;24.50;1.00
2056;DHT22;1033;52.560;13.374;2022-07-23T15:34:36;24.50;1.00
2056;DHT22;1033;52.560;13.374;2022-07-23T15:37:06;24.80;1.00
2056;DHT22;1033;52.560;13.374;2022-07-23T15:39:37;24.90;1.00
2056;DHT22;1033;52.560;13.374;2022-07-23T15:42:09;25.10;1.00
2056;DHT22;1033;52.560;13.374;2022-07-23T15:44:41;25.10;1.00
2056;DHT22;1033;52.560;13.374;2022-07-23T15:47:12;25.10;1.00
2056;DHT22;1033;52.560;13.374;2022-07-23T15:49:44;24.60;1.00
2056;DHT22;1033;52.560;13.374;2022-07-23T15:52:14;24.30;1.00
2056;DHT22;1033;52.560;13.374;2022-07-23T15:54:47;23.90;1.00
2056;DHT22;1033;52.560;13.374;2022-07-23T15:57:18;23.70;1.00
2056;DHT22;1033;52.560;13.374;2022-07-23T15:59:47;23.80;1.00
2056;DHT22;1033;52.560;13.374;2022-07-23T16:02:17;24.00;1.00
2056;DHT22;1033;52.560;13.374;2022-07-23T16:04:48;24.20;1.00
2056;DHT22;1033;52.560;13.374;2022-07-23T16:07:18;24.40;1.00
2056;DHT22;1033;52.560;13.374;2022-07-23T16:09:47;24.50;1.00
2056;DHT22;1033;52.560;13.374;2022-07-23T16:12:17;24.40;1.00
2056;DHT22;1033;52.560;13.374;2022-07-23T16:14:46;24.30;1.00
2056;DHT22;1033;52.560;13.374;2022-07-23T16:17:15;24.40;1.00
2056;DHT22;1033;52.560;13.374;2022-07-23T16:19:44;24.40;1.00